Ina Theresa — V7UJ2 — position and weather

sailwx.info

Track history (hours):
 
Tides and Currents Weather Stations Pressure Air Temp Water Temp Dewpoint Dewpoint Depression Visibility Wind Speed Wind Dir Waves Ship Positions

Ina Theresa

Last reported at 2014-Jul-22 18:31 UTC. Time now 2014-Jul-22 23:14 UTC.
Position N 35°59' W 005°20'.

Length 122 m; draft 6 m.

Type: Ship (hazmat cat C). MMSI: 538004548.

Date/timePositionNaut miles runAvg speedWind from/ knotsBaromVisibWave heightAir tempDewpointWater temp
2014-Jul-22 18:31N 35°59' W 005°20'5112.2
2014-Jul-22 14:19N 35°56' W 006°23'1211.9
2014-Jul-22 13:19N 35°58' W 006°38'912.2
2014-Jul-22 12:33N 36°01' W 006°49'1211.9
2014-Jul-22 11:33N 36°03' W 007°03'1211.9
2014-Jul-22 10:33N 36°06' W 007°18'1212.1
2014-Jul-22 09:33N 36°09' W 007°32'1312.6
2014-Jul-22 08:33N 36°12' W 007°47'1912.6
2014-Jul-22 07:03N 36°16' W 008°10'1112.6
2014-Jul-22 06:12N 36°19' W 008°23'812.5
2014-Jul-22 05:33N 36°21' W 008°33'1212.2
2014-Jul-22 04:33N 36°24' W 008°47'1212.3
2014-Jul-22 03:33N 36°27' W 009°02'1211.9
2014-Jul-22 02:33N 36°29' W 009°17'1212.1
2014-Jul-22 01:33N 36°37' W 009°28'1212.5
2014-Jul-22 00:33N 36°47' W 009°38'1212.3
2014-Jul-21 23:33N 36°59' W 009°42'1212.4
2014-Jul-21 22:33N 37°11' W 009°45'1312.6
2014-Jul-21 21:33N 37°23' W 009°49'1313.1
2014-Jul-21 20:33N 37°36' W 009°52'312.9
2014-Jul-21 20:17N 37°39' W 009°53'1013.0
2014-Jul-21 19:33N 37°49' W 009°56'1312.7
2014-Jul-21 18:33N 38°01' W 009°60'1313.1
2014-Jul-21 17:33N 38°14' W 010°04'1313.2
2014-Jul-21 16:33N 38°26' W 010°07'1312.7
2014-Jul-21 15:33N 38°39' W 010°11'1612.8
2014-Jul-21 14:19N 38°55' W 010°12'  
2014-Jul-18 19:32N 50°10' W 001°53'1515.0
2014-Jul-18 18:32N 50°14' W 001°30'1515.0
2014-Jul-18 17:34N 50°18' W 001°08'1414.2
2014-Jul-18 16:32N 50°22' W 000°46'1312.8
2014-Jul-18 15:33N 50°26' W 000°28'1312.4
2014-Jul-18 14:28N 50°30' W 000°07'1011.4
2014-Jul-18 13:34N 50°32' E 000°09'1110.9
2014-Jul-18 12:33N 50°35' E 000°25'1111.1
2014-Jul-18 11:33N 50°40' E 000°41'1212.4
2014-Jul-18 10:33N 50°48' E 000°56'1413.8
2014-Jul-18 09:32N 50°57' E 001°13'1313.4
2014-Jul-18 08:33N 51°05' E 001°30'1212.4
2014-Jul-18 07:33N 51°13' E 001°44'1211.9
2014-Jul-18 06:33N 51°23' E 001°55'1111.4
2014-Jul-18 05:33N 51°33' E 002°05'1211.6
2014-Jul-18 04:33N 51°41' E 002°18'1212.1
2014-Jul-18 03:33N 51°50' E 002°31'1313.2
2014-Jul-18 02:33N 52°00' E 002°45'1414.0
2014-Jul-18 01:33N 52°11' E 002°59'1414.3
2014-Jul-18 00:34N 52°23' E 003°12'1413.7
2014-Jul-17 23:33N 52°29' E 003°32'1312.8
2014-Jul-17 22:33N 52°31' E 003°53'1212.1
2014-Jul-17 21:34N 52°31' E 004°13'1111.4
2014-Jul-17 20:33N 52°28' E 004°31'4 4.1
2014-Jul-17 19:34N 52°28' E 004°38'3 2.6
2014-Jul-17 18:33N 52°27' E 004°42'4 3.6
2014-Jul-17 17:32N 52°24' E 004°46'0 0.0
2014-Jul-17 16:32N 52°24' E 004°46'0 0.0
2014-Jul-17 15:32N 52°24' E 004°46'0 0.0
2014-Jul-17 14:29N 52°24' E 004°46'0 0.0
2014-Jul-17 13:32N 52°24' E 004°46'0 0.0
2014-Jul-17 12:32N 52°24' E 004°46'0 0.0
2014-Jul-17 11:32N 52°24' E 004°46'0 0.0
2014-Jul-17 10:32N 52°24' E 004°46'0 0.0
2014-Jul-17 09:32N 52°24' E 004°46'0 0.0
2014-Jul-17 08:32N 52°24' E 004°46'0 0.0
2014-Jul-17 07:32N 52°24' E 004°46'0 0.0
2014-Jul-17 06:32N 52°24' E 004°46'0 0.0
2014-Jul-17 05:29N 52°24' E 004°46'0 0.0
2014-Jul-17 04:32N 52°24' E 004°46'0 0.0
2014-Jul-17 03:32N 52°24' E 004°46'0 0.0
2014-Jul-17 02:32N 52°24' E 004°46'0 0.0
2014-Jul-17 01:32N 52°24' E 004°46'0 0.0
2014-Jul-17 00:32N 52°24' E 004°46'0 0.0
2014-Jul-16 23:32N 52°24' E 004°46'0 0.0
2014-Jul-16 22:32N 52°24' E 004°46'0 0.0
2014-Jul-16 21:32N 52°24' E 004°46'0 0.0
2014-Jul-16 20:32N 52°24' E 004°46'0 0.0
2014-Jul-16 19:29N 52°24' E 004°46'0 0.0
2014-Jul-16 18:29N 52°24' E 004°46'0 0.0
2014-Jul-16 17:23N 52°24' E 004°46'0 0.0
2014-Jul-16 16:32N 52°24' E 004°46'0 0.0
2014-Jul-16 15:32N 52°24' E 004°46'0 0.0
2014-Jul-16 14:32N 52°24' E 004°46'0 0.0
2014-Jul-16 13:29N 52°24' E 004°46'0 0.0
2014-Jul-16 12:32N 52°24' E 004°46'0 0.0
2014-Jul-16 11:23N 52°24' E 004°46'0 0.0
2014-Jul-16 10:32N 52°24' E 004°46'0 0.0
2014-Jul-16 09:32N 52°24' E 004°46'0 0.0
2014-Jul-16 08:32N 52°24' E 004°46'0 0.0
2014-Jul-16 07:32N 52°24' E 004°46'0 0.0
2014-Jul-16 06:26N 52°24' E 004°46'0 0.0
2014-Jul-16 05:32N 52°24' E 004°46'0 0.0
2014-Jul-16 04:32N 52°24' E 004°46'2 2.2
2014-Jul-16 03:34N 52°25' E 004°50'1 0.9
2014-Jul-16 02:31N 52°25' E 004°51'0 0.0
2014-Jul-16 01:31N 52°25' E 004°51'0 0.0
2014-Jul-16 00:32N 52°25' E 004°51'0 0.0
2014-Jul-15 23:32N 52°25' E 004°51'0 0.0
2014-Jul-15 22:31N 52°25' E 004°51'0 0.0
2014-Jul-15 21:31N 52°25' E 004°51'0 0.0
2014-Jul-15 20:31N 52°25' E 004°51'0 0.0
2014-Jul-15 19:32N 52°25' E 004°51'0 0.0
2014-Jul-15 18:32N 52°25' E 004°51'0 0.0
2014-Jul-15 17:32N 52°25' E 004°51'0 0.0
2014-Jul-15 16:31N 52°25' E 004°51'0 0.0
2014-Jul-15 15:32N 52°25' E 004°51'0 0.0
2014-Jul-15 14:32N 52°25' E 004°51'0 0.0
2014-Jul-15 13:29N 52°25' E 004°51'0 0.0
2014-Jul-15 12:32N 52°25' E 004°51'0 0.0
2014-Jul-15 11:32N 52°25' E 004°51'0 0.0
2014-Jul-15 10:31N 52°25' E 004°51'0 0.0
2014-Jul-15 09:31N 52°25' E 004°51'0 0.0
2014-Jul-15 08:32N 52°25' E 004°51'0 0.0
2014-Jul-15 07:31N 52°25' E 004°51'0 0.0
2014-Jul-15 06:31N 52°25' E 004°51'0 0.0
2014-Jul-15 05:31N 52°25' E 004°51'0 0.0
2014-Jul-15 04:32N 52°25' E 004°51'0 0.0
2014-Jul-15 03:32N 52°25' E 004°51'0 0.0
2014-Jul-15 02:31N 52°25' E 004°51'0 0.0
2014-Jul-15 01:31N 52°25' E 004°51'4 4.2
2014-Jul-15 00:34N 52°26' E 004°45'6 6.1
2014-Jul-14 23:34N 52°28' E 004°35'1010.1
2014-Jul-14 22:33N 52°28' E 004°19'1111.1
2014-Jul-14 21:33N 52°28' E 004°00'1111.4
2014-Jul-14 20:33N 52°25' E 003°42'1111.1
2014-Jul-14 19:33N 52°16' E 003°33'1212.0
2014-Jul-14 18:33N 52°05' E 003°25'2311.3
2014-Jul-14 16:33N 51°42' E 003°18'1313.0
2014-Jul-14 15:33N 51°31' E 003°27'1111.2
2014-Jul-14 14:33N 51°24' E 003°41'5 0.6
2014-Jul-14 06:08N 51°21' E 003°46'0 0.0
2014-Jul-14 05:29N 51°21' E 003°46'0 0.0
2014-Jul-14 04:29N 51°21' E 003°46'0 0.0
2014-Jul-14 03:29N 51°21' E 003°46'0 0.0
2014-Jul-14 02:29N 51°21' E 003°46'0 0.0
2014-Jul-14 01:32N 51°21' E 003°46'0 0.0
2014-Jul-14 00:33N 51°21' E 003°46'3 3.3
2014-Jul-13 23:34N 51°23' E 003°43'10 9.8
2014-Jul-13 22:33N 51°25' E 003°27'1412.8
2014-Jul-13 21:30N 51°24' E 003°06'1111.1
2014-Jul-13 20:33N 51°22' E 002°49'10 9.8
2014-Jul-13 19:33N 51°22' E 002°33'1111.3
2014-Jul-13 18:32N 51°18' E 002°16'1010.4
2014-Jul-13 17:33N 51°22' E 002°01'10 9.7
2014-Jul-13 16:33N 51°32' E 002°05'1110.7
2014-Jul-13 15:33N 51°39' E 002°16'1110.3
2014-Jul-13 14:32N 51°47' E 002°28'7612.6
2014-Jul-13 08:32N 52°57' E 003°17'1313.5
2014-Jul-13 07:32N 53°10' E 003°20'1512.2
2014-Jul-13 06:20N 53°23' E 003°30'810.6
2014-Jul-13 05:33N 53°31' E 003°34'1310.4
2014-Jul-13 04:19N 53°44' E 003°41'910.7
2014-Jul-13 03:27N 53°49' E 003°54'1011.0
2014-Jul-13 02:33N 53°55' E 004°07'1111.3
2014-Jul-13 01:33N 54°02' E 004°22'1111.4
2014-Jul-13 00:33N 54°04' E 004°41'1211.6
2014-Jul-12 23:33N 54°05' E 005°01'1111.3
2014-Jul-12 22:33N 54°07' E 005°20'1110.8
2014-Jul-12 21:33N 54°08' E 005°39'1010.2
2014-Jul-12 20:34N 54°10' E 005°56'1010.1
2014-Jul-12 19:32N 54°11' E 006°13'1010.4
2014-Jul-12 18:32N 54°12' E 006°31'  
Track history (hours):
 
Tides and Currents Weather Stations Pressure Air Temp Water Temp Dewpoint Dewpoint Depression Visibility Wind Speed Wind Dir Waves Ship Positions

Ina Theresa

Last reported at 2014-Jul-22 18:31 UTC. Time now 2014-Jul-22 23:14 UTC.
Position N 35°59' W 005°20'.

Length 122 m; draft 6 m.

Type: Ship (hazmat cat C). MMSI: 538004548.

Date/timePositionNaut miles runAvg speedWind from/ knotsBaromVisibWave heightAir tempDewpointWater temp
2014-Jul-22 18:31N 35°59' W 005°20'5112.2
2014-Jul-22 14:19N 35°56' W 006°23'1211.9
2014-Jul-22 13:19N 35°58' W 006°38'912.2
2014-Jul-22 12:33N 36°01' W 006°49'1211.9
2014-Jul-22 11:33N 36°03' W 007°03'1211.9
2014-Jul-22 10:33N 36°06' W 007°18'1212.1
2014-Jul-22 09:33N 36°09' W 007°32'1312.6
2014-Jul-22 08:33N 36°12' W 007°47'1912.6
2014-Jul-22 07:03N 36°16' W 008°10'1112.6
2014-Jul-22 06:12N 36°19' W 008°23'812.5
2014-Jul-22 05:33N 36°21' W 008°33'1212.2
2014-Jul-22 04:33N 36°24' W 008°47'1212.3
2014-Jul-22 03:33N 36°27' W 009°02'1211.9
2014-Jul-22 02:33N 36°29' W 009°17'1212.1
2014-Jul-22 01:33N 36°37' W 009°28'1212.5
2014-Jul-22 00:33N 36°47' W 009°38'1212.3
2014-Jul-21 23:33N 36°59' W 009°42'1212.4
2014-Jul-21 22:33N 37°11' W 009°45'1312.6
2014-Jul-21 21:33N 37°23' W 009°49'1313.1
2014-Jul-21 20:33N 37°36' W 009°52'312.9
2014-Jul-21 20:17N 37°39' W 009°53'1013.0
2014-Jul-21 19:33N 37°49' W 009°56'1312.7
2014-Jul-21 18:33N 38°01' W 009°60'1313.1
2014-Jul-21 17:33N 38°14' W 010°04'1313.2
2014-Jul-21 16:33N 38°26' W 010°07'1312.7
2014-Jul-21 15:33N 38°39' W 010°11'1612.8
2014-Jul-21 14:19N 38°55' W 010°12'  
2014-Jul-18 19:32N 50°10' W 001°53'1515.0
2014-Jul-18 18:32N 50°14' W 001°30'1515.0
2014-Jul-18 17:34N 50°18' W 001°08'1414.2
2014-Jul-18 16:32N 50°22' W 000°46'1312.8
2014-Jul-18 15:33N 50°26' W 000°28'1312.4
2014-Jul-18 14:28N 50°30' W 000°07'1011.4
2014-Jul-18 13:34N 50°32' E 000°09'1110.9
2014-Jul-18 12:33N 50°35' E 000°25'1111.1
2014-Jul-18 11:33N 50°40' E 000°41'1212.4
2014-Jul-18 10:33N 50°48' E 000°56'1413.8
2014-Jul-18 09:32N 50°57' E 001°13'1313.4
2014-Jul-18 08:33N 51°05' E 001°30'1212.4
2014-Jul-18 07:33N 51°13' E 001°44'1211.9
2014-Jul-18 06:33N 51°23' E 001°55'1111.4
2014-Jul-18 05:33N 51°33' E 002°05'1211.6
2014-Jul-18 04:33N 51°41' E 002°18'1212.1
2014-Jul-18 03:33N 51°50' E 002°31'1313.2
2014-Jul-18 02:33N 52°00' E 002°45'1414.0
2014-Jul-18 01:33N 52°11' E 002°59'1414.3
2014-Jul-18 00:34N 52°23' E 003°12'1413.7
2014-Jul-17 23:33N 52°29' E 003°32'1312.8
2014-Jul-17 22:33N 52°31' E 003°53'1212.1
2014-Jul-17 21:34N 52°31' E 004°13'1111.4
2014-Jul-17 20:33N 52°28' E 004°31'4 4.1
2014-Jul-17 19:34N 52°28' E 004°38'3 2.6
2014-Jul-17 18:33N 52°27' E 004°42'4 3.6
2014-Jul-17 17:32N 52°24' E 004°46'0 0.0
2014-Jul-17 16:32N 52°24' E 004°46'0 0.0
2014-Jul-17 15:32N 52°24' E 004°46'0 0.0
2014-Jul-17 14:29N 52°24' E 004°46'0 0.0
2014-Jul-17 13:32N 52°24' E 004°46'0 0.0
2014-Jul-17 12:32N 52°24' E 004°46'0 0.0
2014-Jul-17 11:32N 52°24' E 004°46'0 0.0
2014-Jul-17 10:32N 52°24' E 004°46'0 0.0
2014-Jul-17 09:32N 52°24' E 004°46'0 0.0
2014-Jul-17 08:32N 52°24' E 004°46'0 0.0
2014-Jul-17 07:32N 52°24' E 004°46'0 0.0
2014-Jul-17 06:32N 52°24' E 004°46'0 0.0
2014-Jul-17 05:29N 52°24' E 004°46'0 0.0
2014-Jul-17 04:32N 52°24' E 004°46'0 0.0
2014-Jul-17 03:32N 52°24' E 004°46'0 0.0
2014-Jul-17 02:32N 52°24' E 004°46'0 0.0
2014-Jul-17 01:32N 52°24' E 004°46'0 0.0
2014-Jul-17 00:32N 52°24' E 004°46'0 0.0
2014-Jul-16 23:32N 52°24' E 004°46'0 0.0
2014-Jul-16 22:32N 52°24' E 004°46'0 0.0
2014-Jul-16 21:32N 52°24' E 004°46'0 0.0
2014-Jul-16 20:32N 52°24' E 004°46'0 0.0
2014-Jul-16 19:29N 52°24' E 004°46'0 0.0
2014-Jul-16 18:29N 52°24' E 004°46'0 0.0
2014-Jul-16 17:23N 52°24' E 004°46'0 0.0
2014-Jul-16 16:32N 52°24' E 004°46'0 0.0
2014-Jul-16 15:32N 52°24' E 004°46'0 0.0
2014-Jul-16 14:32N 52°24' E 004°46'0 0.0
2014-Jul-16 13:29N 52°24' E 004°46'0 0.0
2014-Jul-16 12:32N 52°24' E 004°46'0 0.0
2014-Jul-16 11:23N 52°24' E 004°46'0 0.0
2014-Jul-16 10:32N 52°24' E 004°46'0 0.0
2014-Jul-16 09:32N 52°24' E 004°46'0 0.0
2014-Jul-16 08:32N 52°24' E 004°46'0 0.0
2014-Jul-16 07:32N 52°24' E 004°46'0 0.0
2014-Jul-16 06:26N 52°24' E 004°46'0 0.0
2014-Jul-16 05:32N 52°24' E 004°46'0 0.0
2014-Jul-16 04:32N 52°24' E 004°46'2 2.2
2014-Jul-16 03:34N 52°25' E 004°50'1 0.9
2014-Jul-16 02:31N 52°25' E 004°51'0 0.0
2014-Jul-16 01:31N 52°25' E 004°51'0 0.0
2014-Jul-16 00:32N 52°25' E 004°51'0 0.0
2014-Jul-15 23:32N 52°25' E 004°51'0 0.0
2014-Jul-15 22:31N 52°25' E 004°51'0 0.0
2014-Jul-15 21:31N 52°25' E 004°51'0 0.0
2014-Jul-15 20:31N 52°25' E 004°51'0 0.0
2014-Jul-15 19:32N 52°25' E 004°51'0 0.0
2014-Jul-15 18:32N 52°25' E 004°51'0 0.0
2014-Jul-15 17:32N 52°25' E 004°51'0 0.0
2014-Jul-15 16:31N 52°25' E 004°51'0 0.0
2014-Jul-15 15:32N 52°25' E 004°51'0 0.0
2014-Jul-15 14:32N 52°25' E 004°51'0 0.0
2014-Jul-15 13:29N 52°25' E 004°51'0 0.0
2014-Jul-15 12:32N 52°25' E 004°51'0 0.0
2014-Jul-15 11:32N 52°25' E 004°51'0 0.0
2014-Jul-15 10:31N 52°25' E 004°51'0 0.0
2014-Jul-15 09:31N 52°25' E 004°51'0 0.0
2014-Jul-15 08:32N 52°25' E 004°51'0 0.0
2014-Jul-15 07:31N 52°25' E 004°51'0 0.0
2014-Jul-15 06:31N 52°25' E 004°51'0 0.0
2014-Jul-15 05:31N 52°25' E 004°51'0 0.0
2014-Jul-15 04:32N 52°25' E 004°51'0 0.0
2014-Jul-15 03:32N 52°25' E 004°51'0 0.0
2014-Jul-15 02:31N 52°25' E 004°51'0 0.0
2014-Jul-15 01:31N 52°25' E 004°51'4 4.2
2014-Jul-15 00:34N 52°26' E 004°45'6 6.1
2014-Jul-14 23:34N 52°28' E 004°35'1010.1
2014-Jul-14 22:33N 52°28' E 004°19'1111.1
2014-Jul-14 21:33N 52°28' E 004°00'1111.4
2014-Jul-14 20:33N 52°25' E 003°42'1111.1
2014-Jul-14 19:33N 52°16' E 003°33'1212.0
2014-Jul-14 18:33N 52°05' E 003°25'2311.3
2014-Jul-14 16:33N 51°42' E 003°18'1313.0
2014-Jul-14 15:33N 51°31' E 003°27'1111.2
2014-Jul-14 14:33N 51°24' E 003°41'5 0.6
2014-Jul-14 06:08N 51°21' E 003°46'0 0.0
2014-Jul-14 05:29N 51°21' E 003°46'0 0.0
2014-Jul-14 04:29N 51°21' E 003°46'0 0.0
2014-Jul-14 03:29N 51°21' E 003°46'0 0.0
2014-Jul-14 02:29N 51°21' E 003°46'0 0.0
2014-Jul-14 01:32N 51°21' E 003°46'0 0.0
2014-Jul-14 00:33N 51°21' E 003°46'3 3.3
2014-Jul-13 23:34N 51°23' E 003°43'10 9.8
2014-Jul-13 22:33N 51°25' E 003°27'1412.8
2014-Jul-13 21:30N 51°24' E 003°06'1111.1
2014-Jul-13 20:33N 51°22' E 002°49'10 9.8
2014-Jul-13 19:33N 51°22' E 002°33'1111.3
2014-Jul-13 18:32N 51°18' E 002°16'1010.4
2014-Jul-13 17:33N 51°22' E 002°01'10 9.7
2014-Jul-13 16:33N 51°32' E 002°05'1110.7
2014-Jul-13 15:33N 51°39' E 002°16'1110.3
2014-Jul-13 14:32N 51°47' E 002°28'7612.6
2014-Jul-13 08:32N 52°57' E 003°17'1313.5
2014-Jul-13 07:32N 53°10' E 003°20'1512.2
2014-Jul-13 06:20N 53°23' E 003°30'810.6
2014-Jul-13 05:33N 53°31' E 003°34'1310.4
2014-Jul-13 04:19N 53°44' E 003°41'910.7
2014-Jul-13 03:27N 53°49' E 003°54'1011.0
2014-Jul-13 02:33N 53°55' E 004°07'1111.3
2014-Jul-13 01:33N 54°02' E 004°22'1111.4
2014-Jul-13 00:33N 54°04' E 004°41'1211.6
2014-Jul-12 23:33N 54°05' E 005°01'1111.3
2014-Jul-12 22:33N 54°07' E 005°20'1110.8
2014-Jul-12 21:33N 54°08' E 005°39'1010.2
2014-Jul-12 20:34N 54°10' E 005°56'1010.1
2014-Jul-12 19:32N 54°11' E 006°13'1010.4
2014-Jul-12 18:32N 54°12' E 006°31'  

Dump ship's entire track history